DEN weather

Denver International Airport
Denver, Colorado, United States

Public forecast

Using degrees Fahrenheit for public forecast. Weather courtesy of forecast.io.

METAR (pilot weather report)

Retrieved 2018/06/19 08:23 UTC (0 seconds ago):

KDEN 190823Z 08012KT 10SM OVC013 16/13 A3012 RMK AO2 LTG DSNT N T01560128 $

TAF (pilot weather forecast)

Retrieved 2018/06/19 06:27 UTC (2 hours ago):

TAF KDEN 190524Z 1906/2012 06011KT P6SM BKN015 OVC020 FM190800 08009KT P6SM OVC010 FM191000 08006KT 1SM -DZ BR OVC003 FM191500 08006KT P6SM SCT006 OVC012 FM191800 09009KT P6SM SCT020 BKN040 FM192100 09012KT P6SM SCT040 BKN070 TEMPO 1922/2002 VRB15G30KT 3SM +TSRA BKN050CB FM200300 04011KT P6SM SCT050 BKN100